CST,Max TemperatureF,Mean TemperatureF,Min TemperatureF,Max Dew PointF,MeanDew PointF,Min DewpointF,Max Humidity, Mean Humidity, Min Humidity, Max Sea Level PressureIn, Mean Sea Level PressureIn, Min Sea Level PressureIn, Max VisibilityMiles, Mean VisibilityMiles, Min VisibilityMiles, Max Wind SpeedMPH, Mean Wind SpeedMPH, Max Gust SpeedMPH,PrecipitationIn, CloudCover, Events, WindDirDegrees
2012-2-1,73,67,60,64,61,54,100,87,73,30.17,30.13,30.05,10,10,7,10,5,14,0.01,5,Rain,171
2012-2-2,71,64,56,61,58,55,93,83,73,30.24,30.18,30.14,10,10,7,14,6,17,T,7,,89
2012-2-3,63,61,59,61,59,55,97,88,78,30.21,30.14,30.07,10,6,2,25,11,30,2.43,7,Rain-Thunderstorm,122
2012-2-4,66,63,59,65,62,55,100,92,84,30.16,30.09,30.03,10,6,1,13,5,21,0.88,7,Rain-Thunderstorm,184
2012-2-5,59,52,45,54,43,39,87,75,63,30.31,30.24,30.14,10,10,10,16,8,21,0.00,7,,344
2012-2-6,55,48,41,42,41,38,89,74,59,30.35,30.27,30.24,10,10,10,13,7,16,0.00,0,,12
2012-2-7,63,53,42,45,42,40,89,66,43,30.32,30.25,30.20,10,10,9,12,5,14,0.02,4,Rain,2
2012-2-8,57,50,42,43,40,38,96,76,55,30.41,30.36,30.30,10,10,10,17,8,23,0.00,2,,356
2012-2-9,53,46,38,36,33,31,76,61,46,30.41,30.32,30.23,10,10,10,13,7,18,0.00,0,,40
2012-2-10,51,46,40,45,40,34,86,78,70,30.23,30.16,30.09,10,10,7,12,3,16,0.01,5,Rain,18
2012-2-11,45,37,28,41,24,17,89,69,48,30.62,30.45,30.23,10,10,9,29,17,35,0.00,2,,360
2012-2-12,45,36,27,22,15,11,63,44,25,30.67,30.54,30.39,10,10,10,18,8,23,0.00,0,,17
2012-2-13,49,40,31,47,36,18,100,70,40,30.38,30.07,29.91,10,8,1,17,8,21,0.84,8,Rain,119
2012-2-14,51,44,36,48,43,37,100,87,74,30.10,30.01,29.90,10,8,0,10,3,13,0.00,6,Fog,317
2012-2-15,71,54,37,60,51,37,100,77,53,30.13,30.05,29.95,10,6,2,21,9,25,0.86,5,Rain-Thunderstorm,130
2012-2-16,61,56,50,59,55,46,100,85,69,30.22,30.15,30.02,10,7,1,14,7,17,0.00,5,,357
2012-2-17,64,56,48,48,46,44,93,73,52,30.19,30.14,30.06,10,10,10,14,6,17,0.00,1,,42
2012-2-18,54,51,48,51,48,45,93,85,77,30.04,29.90,29.77,10,6,2,23,9,29,1.47,7,Rain-Thunderstorm,32
2012-2-19,55,47,38,50,43,39,100,80,59,30.19,30.00,29.79,10,7,0,23,9,28,0.19,5,Fog-Rain,352
2012-2-20,63,49,35,43,38,34,100,68,36,30.25,30.17,30.10,10,6,0,14,6,21,0.00,1,Fog,119
2012-2-21,71,58,44,50,42,28,100,61,22,30.22,30.12,30.02,10,10,8,17,5,24,T,1,,206
2012-2-22,76,62,48,63,58,47,100,79,58,30.01,29.84,29.68,10,8,2,21,9,29,0.00,4,,210
2012-2-23,83,74,64,65,62,59,93,70,46,29.70,29.61,29.50,10,10,8,26,14,40,0.00,3,,208
2012-2-24,71,56,40,65,36,21,84,54,24,30.34,30.04,29.68,10,10,9,23,11,32,T,3,,334
2012-2-25,62,46,30,42,30,20,92,57,21,30.44,30.36,30.29,10,10,10,10,2,14,0.00,0,,4
2012-2-26,68,54,39,46,39,31,86,58,29,30.35,30.27,30.18,10,10,10,17,8,24,0.00,3,,151
2012-2-27,72,64,55,55,51,46,83,66,49,30.38,30.31,30.25,10,10,10,14,6,17,T,7,,95
2012-2-28,72,66,60,67,62,55,93,86,78,30.27,30.17,30.07,10,9,7,14,7,18,0.06,7,Rain,143
2012-2-29,81,75,68,67,64,63,93,76,58,30.08,30.02,29.91,10,10,8,21,10,31,0.02,4,Rain,207